Flight Track Log - Related Links

Times and Time Zones

All times are in EDT time to prevent confusion due to time zone crossing. See the N405DD flight status page for this flight to view local times or setup timezone preferences in your user account.

Time Position Orientation Groundspeed Altitude Reporting Facility
EDT Latitude Longitude Course Direction KTS MPH feet Rate Location/Type
Thu 06:04:51 PM 43.6297 -96.7022 37° Northeast 125 144 3,600  Level Minneapolis Center
Thu 06:05:53 PM 43.6589 -96.6692 39° Northeast 130 150 4,700 1,161 Climbing Minneapolis Center
Thu 06:06:55 PM 43.6953 -96.6267 40° Northeast 137 158 6,000 1,210 Climbing Minneapolis Center
Thu 06:07:57 PM 43.7244 -96.5903 42° Northeast 140 161 7,200 1,024 Climbing Minneapolis Center
Thu 06:08:58 PM 43.7522 -96.5531 44° Northeast 140 161 8,100 976 Climbing Minneapolis Center
Thu 06:09:00 PM 43.9271 -96.5456 22° Northeast  Level Estimated
Thu 06:10:00 PM 43.7822 -96.5150 42° Northeast 142 163 9,200  Level Minneapolis Center
Thu 06:11:02 PM 43.8089 -96.4683 52° Northeast 147 169 10,100 871 Climbing Minneapolis Center
Thu 06:12:04 PM 43.8336 -96.4156 57° Northeast 155 178 11,000 600 Climbing Minneapolis Center
Thu 06:18:22 PM 44.0300 -96.0240 57° Northeast 242 278 14,500 496 Climbing FlightAware ADS-B
Thu 06:19:07 PM 44.0590 -95.9650 56° Northeast 244 281 14,500  Level FlightAware ADS-B
Thu 06:19:47 PM 44.0840 -95.9130 56° Northeast 239 275 14,500  Level FlightAware ADS-B
Thu 06:20:27 PM 44.1100 -95.8620 55° Northeast 236 272 14,500  Level FlightAware ADS-B
Thu 06:21:12 PM 44.1360 -95.8080 56° Northeast 234 269 14,500  Level FlightAware ADS-B
Thu 06:22:07 PM 44.1710 -95.7380 55° Northeast 234 269 14,500  Level FlightAware ADS-B
Thu 06:22:47 PM 44.1940 -95.6900 56° Northeast 232 267 14,500  Level FlightAware ADS-B
Thu 06:23:42 PM 44.2260 -95.6250 55° Northeast 232 267 14,500  Level FlightAware ADS-B
Thu 06:24:27 PM 44.2560 -95.5640 56° Northeast 232 267 14,500  Level FlightAware ADS-B
Thu 06:25:22 PM 44.2860 -95.5030 55° Northeast 231 266 14,500  Level FlightAware ADS-B
Thu 06:26:02 PM 44.3130 -95.4470 56° Northeast 232 267 14,500  Level FlightAware ADS-B
Thu 06:26:42 PM 44.3350 -95.4000 57° Northeast 232 267 14,500  Level FlightAware ADS-B
Thu 06:27:27 PM 44.3600 -95.3480 56° Northeast 232 267 14,500  Level FlightAware ADS-B
Thu 06:28:07 PM 44.3810 -95.3060 55° Northeast 232 267 14,500  Level FlightAware ADS-B
Thu 06:29:47 PM 44.4470 -95.1700 56° Northeast 232 267 14,500  Level FlightAware ADS-B
Thu 06:30:17 PM 44.4710 -95.1360 45° Northeast 229 264 14,500  Level FlightAware ADS-B
Thu 06:30:32 PM 44.4860 -95.1290 18° North 225 259 14,500  Level FlightAware ADS-B
Thu 06:31:12 PM 44.5270 -95.1330 356° North 225 259 14,500  Level FlightAware ADS-B
Thu 06:31:57 PM 44.5750 -95.1350 358° North 226 260 14,500  Level FlightAware ADS-B
Thu 06:32:37 PM 44.6170 -95.1380 357° North 226 260 14,500  Level FlightAware ADS-B
Thu 06:33:22 PM 44.6620 -95.1420 356° North 226 260 14,500  Level FlightAware ADS-B
Thu 06:34:02 PM 44.7050 -95.1440 358° North 226 260 14,500  Level FlightAware ADS-B
Thu 06:34:42 PM 44.7450 -95.1470 357° North 227 261 14,500  Level FlightAware ADS-B
Thu 06:35:27 PM 44.7950 -95.1500 358° North 229 264 14,500  Level FlightAware ADS-B
Thu 06:36:07 PM 44.8370 -95.1530 357° North 230 265 14,500  Level FlightAware ADS-B
Thu 06:36:52 PM 44.8850 -95.1570 357° North 231 266 14,500  Level FlightAware ADS-B
Thu 06:37:32 PM 44.9290 -95.1590 358° North 232 267 14,500  Level FlightAware ADS-B
Thu 06:38:12 PM 44.9710 -95.1620 357° North 232 267 14,500  Level FlightAware ADS-B
Thu 06:38:57 PM 45.0190 -95.1660 357° North 234 269 14,500  Level FlightAware ADS-B
Thu 06:39:37 PM 45.0620 -95.1690 357° North 234 269 14,500  Level FlightAware ADS-B
Thu 06:40:22 PM 45.1110 -95.1720 358° North 233 268 14,500  Level FlightAware ADS-B
Thu 06:41:02 PM 45.1550 -95.1760 356° North 235 270 14,500  Level FlightAware ADS-B
Thu 06:41:42 PM 45.1990 -95.1790 357° North 235 270 14,500  Level FlightAware ADS-B
Thu 06:42:27 PM 45.2460 -95.1820 357° North 234 269 14,500  Level FlightAware ADS-B
Thu 06:43:07 PM 45.2900 -95.1850 357° North 233 268 14,500  Level FlightAware ADS-B
Thu 06:43:47 PM 45.3310 -95.1880 357° North 233 268 14,500  Level FlightAware ADS-B
Thu 06:44:32 PM 45.3800 -95.1970 353° North 230 265 14,500  Level FlightAware ADS-B
Thu 06:45:12 PM 45.4210 -95.2120 346° North 229 264 14,500 -212 Level FlightAware ADS-B
Thu 06:45:57 PM 45.4680 -95.2280 347° North 228 262 14,200 -847 Descending FlightAware ADS-B
Thu 06:46:37 PM 45.5100 -95.2430 346° North 230 265 13,300 -1,412 Descending FlightAware ADS-B
Thu 06:47:22 PM 45.5570 -95.2600 346° North 229 264 12,200 -1,765 Descending FlightAware ADS-B
Thu 06:48:02 PM 45.5980 -95.2740 347° North 225 259 10,800 -2,000 Descending FlightAware ADS-B
Thu 06:48:37 PM 45.6310 -95.2860 346° North 219 252 9,700 -943 Descending FlightAware ADS-B
Thu 06:49:12 PM 45.6620 -95.2970 346° North 219 252 9,700  Level FlightAware ADS-B
Thu 06:49:42 PM 45.6870 -95.3060 346° North 219 252 9,700  Level FlightAware ADS-B
Thu 06:50:02 PM 45.7040 -95.3120 346° North 219 252 9,700  Level FlightAware ADS-B
Thu 06:50:32 PM 45.7290 -95.3210 346° North 219 252 9,700  Level FlightAware ADS-B
Thu 06:55:00 PM 45.8663 -95.3947 North  Level Estimated
Thu 06:56:00 PM 45.8663 -95.3947 234° Southwest  Level Estimated
Thu 06:57:00 PM 45.8663 -95.3947 229° Southwest  Level Estimated
Thu 06:58:00 PM 45.8663 -95.3947 215° Southwest  Level Estimated
Thu 06:59:00 PM 45.8663 -95.3947 215° Southwest  Level Estimated
Thu 07:00:00 PM 45.8663 -95.3947 215° Southwest  Level Estimated
Thu 07:01:00 PM 45.8663 -95.3947 215° Southwest  Level Estimated
Thu 07:02:00 PM 45.8663 -95.3947 215° Southwest  Level Estimated
Thu 07:03:00 PM 45.8663 -95.3947 215° Southwest  Level Estimated
Thu 07:04:00 PM 45.8663 -95.3947 215° Southwest  Level Estimated
Thu 07:05:00 PM 45.8663 -95.3947 215° Southwest  Level Estimated
Thu 07:06:00 PM 45.8663 -95.3947 215° Southwest  Level Estimated
Thu 07:07:00 PM 45.8663 -95.3947 215° Southwest  Level Estimated
Thu 07:08:00 PM 45.8663 -95.3947 215° Southwest  Level Estimated
Thu 07:09:00 PM 45.8663 -95.3947 215° Southwest  Level Estimated
Thu 07:10:00 PM 45.8663 -95.3947 215° Southwest  Level Estimated
Thu 07:11:00 PM 45.8663 -95.3947 215° Southwest  Level Estimated
Thu 07:12:00 PM 45.8663 -95.3947 215° Southwest  Level Estimated
Thu 07:13:00 PM 45.8663 -95.3947 215° Southwest  Level Estimated

Login

Don't have an account? Register now (free) for customized features, flight alerts, and more!